Time;durP1;ratioP1;P1;durP2;ratioP2;P2;SDS_P1;SDS_P2;PMS_P1;PMS_P2;Temp;Humidity;BMP_temperature;BMP_pressure;BME280_temperature;BME280_humidity;BME280_pressure;Samples;Min_cycle;Max_cycle;Signal;HPM_P1;HPM_P2
2022/07/18 00:02:04;;;;;;;4.40;0.85;;;;;;;17.39;36.66;94119.00;5109310;28;20063;-42
2022/07/18 00:04:29;;;;;;;0.75;0.73;;;;;;;17.44;34.95;94120.78;5110845;28;20024;-42
2022/07/18 00:06:55;;;;;;;1.17;0.65;;;;;;;17.50;35.80;94120.56;5110526;28;20120;-42
2022/07/18 00:09:22;;;;;;;0.68;0.68;;;;;;;17.44;36.80;94129.16;5110764;28;20035;-42
2022/07/18 00:11:48;;;;;;;1.30;0.70;;;;;;;17.53;36.50;94127.78;5113662;28;20027;-43
2022/07/18 00:14:13;;;;;;;3.90;0.90;;;;;;;17.51;37.36;94127.63;5114808;28;20108;-41
2022/07/18 00:16:39;;;;;;;0.70;0.70;;;;;;;17.47;36.45;94128.03;5113643;28;20015;-41
2022/07/18 00:19:05;;;;;;;0.60;0.60;;;;;;;17.29;37.24;94116.16;5100060;28;20039;-41
2022/07/18 00:21:31;;;;;;;2.83;0.90;;;;;;;17.18;40.07;94136.19;5094607;28;20043;-41
2022/07/18 00:23:57;;;;;;;2.25;0.70;;;;;;;16.92;39.16;94134.06;5093957;28;20494;-41
2022/07/18 00:26:22;;;;;;;1.20;0.60;;;;;;;16.98;39.29;94126.19;5094104;28;20098;-41
2022/07/18 00:28:48;;;;;;;4.55;0.85;;;;;;;17.05;39.91;94128.16;5094398;28;20023;-41
2022/07/18 00:31:13;;;;;;;1.90;0.80;;;;;;;16.85;41.19;94132.09;5094001;28;20101;-40
2022/07/18 00:33:39;;;;;;;1.77;0.50;;;;;;;16.74;41.20;94124.19;5094329;28;20028;-42
2022/07/18 00:36:04;;;;;;;1.83;0.88;;;;;;;16.77;41.84;94128.66;5093973;28;20024;-41
2022/07/18 00:38:30;;;;;;;3.20;1.08;;;;;;;16.48;43.65;94130.41;5093469;28;20616;-39
2022/07/18 00:40:55;;;;;;;1.42;0.70;;;;;;;16.24;43.29;94137.44;5093969;28;20028;-40
2022/07/18 00:43:21;;;;;;;1.35;0.65;;;;;;;15.98;43.96;94128.94;5093853;28;20028;-40
2022/07/18 00:45:48;;;;;;;0.90;0.73;;;;;;;15.99;44.53;94144.34;5093670;28;20099;-40
2022/07/18 00:48:14;;;;;;;0.93;0.77;;;;;;;15.81;43.51;94135.16;5093726;28;20021;-40
2022/07/18 00:50:40;;;;;;;3.10;0.80;;;;;;;15.81;44.90;94135.16;5106123;28;20032;-40
2022/07/18 00:53:06;;;;;;;1.13;0.70;;;;;;;15.84;45.34;94139.59;5097491;28;20046;-40
2022/07/18 00:55:32;;;;;;;3.33;0.80;;;;;;;15.56;45.66;94148.31;5093652;28;20024;-41
2022/07/18 00:57:58;;;;;;;2.45;0.80;;;;;;;15.44;46.14;94141.72;5093769;28;20020;-41
2022/07/18 01:03:08;;;;;;;2.30;1.13;;;;;;;15.35;45.58;94120.00;5093464;28;20023;-40
2022/07/18 01:05:33;;;;;;;3.60;1.48;;;;;;;15.35;46.36;94139.50;5093607;28;20024;-39
2022/07/18 01:07:59;;;;;;;5.20;0.98;;;;;;;15.21;46.82;94144.56;5093702;28;20471;-40
2022/07/18 01:10:24;;;;;;;1.42;0.82;;;;;;;15.03;47.83;94140.91;5093544;28;20081;-38
2022/07/18 01:12:50;;;;;;;1.20;1.10;;;;;;;14.76;49.13;94153.03;5093401;28;20099;-40
2022/07/18 01:15:15;;;;;;;9.40;1.20;;;;;;;14.81;49.34;94141.69;5093163;28;20027;-40
2022/07/18 01:17:41;;;;;;;2.17;1.42;;;;;;;14.55;49.81;94141.41;5096126;28;20020;-41
2022/07/18 01:20:07;;;;;;;10.50;1.13;;;;;;;14.54;50.62;94139.91;5111599;28;20484;-40
2022/07/18 01:22:33;;;;;;;1.58;0.80;;;;;;;14.51;49.44;94152.88;5093284;28;20020;-40
2022/07/18 01:24:58;;;;;;;1.45;1.00;;;;;;;14.54;48.96;94135.09;5092790;28;20085;-40
2022/07/18 01:27:24;;;;;;;6.63;1.13;;;;;;;14.36;49.75;94145.31;5090877;28;20073;-39
2022/07/18 01:29:52;;;;;;;1.35;0.82;;;;;;;14.32;50.75;94141.41;5101235;28;20138;-40
2022/07/18 01:32:18;;;;;;;1.33;1.15;;;;;;;14.24;51.47;94144.19;5113148;28;20055;-40
2022/07/18 01:34:46;;;;;;;1.30;1.20;;;;;;;14.12;51.86;94137.50;5113195;28;20039;-40
2022/07/18 01:37:11;;;;;;;1.23;0.82;;;;;;;14.14;51.53;94139.75;5103584;28;20038;-39
2022/07/18 01:39:37;;;;;;;1.48;0.82;;;;;;;14.08;51.05;94148.25;5092539;28;20039;-40
2022/07/18 01:42:04;;;;;;;2.13;0.80;;;;;;;14.03;51.59;94137.34;5092762;28;20023;-41
2022/07/18 01:44:31;;;;;;;1.02;0.93;;;;;;;13.97;51.78;94147.88;5092738;28;20032;-40
2022/07/18 01:46:56;;;;;;;1.00;0.90;;;;;;;14.03;51.04;94129.00;5092610;28;20031;-40
2022/07/18 01:49:22;;;;;;;1.85;0.95;;;;;;;14.02;51.36;94144.16;5108875;28;20024;-40
2022/07/18 01:51:51;;;;;;;1.00;0.90;;;;;;;14.01;51.94;94145.47;5112963;28;20047;-40
2022/07/18 01:54:19;;;;;;;1.25;1.00;;;;;;;14.05;51.28;94132.72;5113115;28;20108;-40
2022/07/18 01:56:45;;;;;;;2.70;0.80;;;;;;;13.89;52.39;94141.56;5113113;27;20046;-40
2022/07/18 01:59:10;;;;;;;1.08;0.73;;;;;;;13.89;52.15;94145.09;5112777;28;20020;-40
2022/07/18 02:01:36;;;;;;;0.70;0.70;;;;;;;13.57;53.07;94140.06;5112632;28;20027;-41
2022/07/18 02:04:02;;;;;;;0.77;0.65;;;;;;;13.46;53.59;94145.94;5112689;28;20027;-41
2022/07/18 02:06:27;;;;;;;1.25;0.90;;;;;;;13.47;53.14;94138.38;5112936;28;20027;-41
2022/07/18 02:08:52;;;;;;;5.97;1.05;;;;;;;13.42;53.51;94153.16;5112710;28;20412;-40
2022/07/18 02:11:18;;;;;;;5.03;1.15;;;;;;;13.40;53.29;94148.16;5112440;28;20076;-41
2022/07/18 02:13:43;;;;;;;3.03;0.98;;;;;;;13.24;53.52;94141.06;5112451;28;20022;-40
2022/07/18 02:16:09;;;;;;;3.55;1.17;;;;;;;13.29;54.24;94145.72;5112057;28;20030;-41
2022/07/18 02:18:34;;;;;;;0.85;0.70;;;;;;;13.37;54.08;94142.94;5112617;28;20038;-41
2022/07/18 02:21:00;;;;;;;2.85;0.93;;;;;;;13.22;54.22;94154.75;5112739;28;20019;-40
2022/07/18 02:23:25;;;;;;;1.25;0.90;;;;;;;12.81;55.44;94138.25;5112239;28;20102;-42
2022/07/18 02:25:51;;;;;;;6.45;1.40;;;;;;;13.02;55.24;94152.03;5112200;28;20027;-42
2022/07/18 02:28:16;;;;;;;16.67;1.60;;;;;;;12.99;55.31;94153.13;5112077;28;20015;-41
2022/07/18 02:30:42;;;;;;;1.52;1.40;;;;;;;13.01;55.48;94151.31;5112238;28;20034;-41
2022/07/18 02:33:07;;;;;;;4.32;1.00;;;;;;;13.00;55.44;94157.38;5111707;28;20020;-41
2022/07/18 02:35:33;;;;;;;9.20;1.50;;;;;;;12.92;56.31;94165.66;5111946;28;20666;-42
2022/07/18 02:37:58;;;;;;;5.78;1.42;;;;;;;12.60;57.22;94138.34;5111421;28;20044;-41
2022/07/18 02:40:24;;;;;;;0.75;0.75;;;;;;;12.76;57.07;94155.78;5111913;28;20024;-40
2022/07/18 02:42:49;;;;;;;0.82;0.82;;;;;;;12.56;57.07;94151.78;5094337;28;20023;-41
2022/07/18 02:45:15;;;;;;;1.08;0.75;;;;;;;12.43;56.76;94132.50;5104672;28;20030;-41
2022/07/18 02:47:40;;;;;;;3.33;1.25;;;;;;;12.73;56.38;94163.16;5111691;28;20480;-41
2022/07/18 02:50:06;;;;;;;5.38;1.40;;;;;;;12.48;57.24;94167.63;5111684;28;20019;-41
2022/07/18 02:52:32;;;;;;;1.20;0.82;;;;;;;12.65;56.70;94162.38;5104447;28;20024;-41
2022/07/18 02:55:00;;;;;;;1.33;1.05;;;;;;;12.39;56.81;94164.63;5091249;28;20047;-42
2022/07/18 02:57:26;;;;;;;2.13;1.02;;;;;;;12.34;58.04;94163.47;5106324;28;20412;-41
2022/07/18 02:59:51;;;;;;;2.08;1.10;;;;;;;12.26;58.09;94156.41;5111508;28;20030;-40
2022/07/18 03:02:17;;;;;;;4.90;1.40;;;;;;;12.31;58.04;94164.56;5111698;28;20051;-41
2022/07/18 03:04:43;;;;;;;1.45;1.00;;;;;;;12.25;55.04;94163.97;5111453;28;20058;-41
2022/07/18 03:07:08;;;;;;;1.40;0.80;;;;;;;12.14;57.23;94164.25;5111094;28;20051;-41
2022/07/18 03:09:34;;;;;;;1.42;1.15;;;;;;;12.10;55.68;94161.81;5111100;28;20020;-40
2022/07/18 03:11:59;;;;;;;1.10;1.00;;;;;;;12.22;55.16;94161.53;5110364;28;20081;-41
2022/07/18 03:14:25;;;;;;;1.48;1.25;;;;;;;12.41;54.18;94167.59;5103887;28;20027;-40
2022/07/18 03:16:50;;;;;;;3.78;0.95;;;;;;;12.57;53.23;94161.59;5106419;28;20024;-42
2022/07/18 03:19:16;;;;;;;2.03;0.93;;;;;;;12.56;53.04;94160.09;5107875;28;20051;-41
2022/07/18 03:21:42;;;;;;;1.45;1.00;;;;;;;12.77;53.49;94155.25;5110271;28;20566;-42
2022/07/18 03:24:07;;;;;;;1.52;0.98;;;;;;;12.75;51.21;94151.53;5111340;28;20019;-42
2022/07/18 03:26:32;;;;;;;1.30;0.90;;;;;;;12.86;51.08;94154.72;5111439;28;20015;-41
2022/07/18 03:28:58;;;;;;;1.13;0.82;;;;;;;13.03;49.77;94159.06;5111272;28;20020;-41
2022/07/18 03:31:23;;;;;;;1.52;0.80;;;;;;;13.25;49.72;94155.69;5096243;28;20421;-44
2022/07/18 03:33:49;;;;;;;1.67;0.80;;;;;;;13.34;51.33;94155.16;5090799;28;20089;-43
2022/07/18 03:36:14;;;;;;;1.38;0.80;;;;;;;13.57;48.19;94148.38;5090514;28;20485;-42
2022/07/18 03:38:43;;;;;;;1.10;0.95;;;;;;;13.85;46.73;94149.53;5090588;28;20483;-41
2022/07/18 03:41:11;;;;;;;0.95;0.73;;;;;;;13.98;48.24;94149.34;5090422;28;20024;-41
2022/07/18 03:43:38;;;;;;;1.05;0.95;;;;;;;14.10;48.15;94131.78;5094040;28;20023;-41
2022/07/18 03:46:04;;;;;;;0.70;0.70;;;;;;;14.32;47.32;94146.97;5109294;28;20453;-41
2022/07/18 03:48:29;;;;;;;2.33;1.00;;;;;;;14.58;45.48;94156.94;5099476;28;20099;-41
2022/07/18 03:50:55;;;;;;;1.33;0.90;;;;;;;14.74;44.49;94153.59;5099812;28;20015;-39
2022/07/18 03:53:20;;;;;;;1.17;0.80;;;;;;;14.93;43.50;94156.69;5101471;28;20099;-38
2022/07/18 03:55:46;;;;;;;4.07;0.60;;;;;;;14.96;45.13;94163.19;5099571;28;20509;-39
2022/07/18 03:58:11;;;;;;;4.32;0.85;;;;;;;14.86;43.96;94162.28;5092223;28;20027;-38
2022/07/18 04:00:37;;;;;;;1.05;1.00;;;;;;;14.78;45.52;94162.28;5090292;28;20085;-40
2022/07/18 04:03:02;;;;;;;1.02;0.82;;;;;;;14.85;45.05;94158.03;5090235;28;20098;-39
2022/07/18 04:05:28;;;;;;;4.78;1.48;;;;;;;14.84;45.96;94164.88;5090204;28;20022;-40
2022/07/18 04:07:53;;;;;;;2.88;0.85;;;;;;;14.93;46.28;94162.25;5090181;28;20035;-41
2022/07/18 04:10:18;;;;;;;2.03;1.15;;;;;;;15.04;45.06;94167.44;5092690;28;20024;-39
2022/07/18 04:12:54;;;;;;;2.95;0.85;;;;;;;15.07;44.27;94162.78;5105546;28;20080;-39
2022/07/18 04:15:21;;;;;;;1.17;0.90;;;;;;;15.10;44.85;94165.19;5110075;28;20027;-39
2022/07/18 04:17:47;;;;;;;1.90;1.08;;;;;;;15.02;46.93;94163.72;5106932;28;20016;-44
2022/07/18 04:20:14;;;;;;;3.70;1.00;;;;;;;15.11;45.70;94163.88;5099099;28;20507;-42
2022/07/18 04:22:46;;;;;;;2.97;1.10;;;;;;;15.09;47.21;94162.97;5110681;28;20455;-43
2022/07/18 04:25:12;;;;;;;1.50;0.95;;;;;;;15.07;47.54;94157.94;5110464;28;20032;-46
2022/07/18 04:27:38;;;;;;;1.17;0.85;;;;;;;15.17;47.76;94156.06;5110261;28;20019;-43
2022/07/18 04:30:04;;;;;;;2.45;0.82;;;;;;;15.23;46.35;94155.09;5110355;28;20028;-43
2022/07/18 04:32:29;;;;;;;0.77;0.75;;;;;;;15.36;44.94;94147.25;5109069;28;20020;-43
2022/07/18 04:34:55;;;;;;;3.08;0.70;;;;;;;15.55;44.04;94163.53;5110282;28;20031;-42
2022/07/18 04:37:20;;;;;;;1.15;0.82;;;;;;;15.61;43.97;94164.06;5099449;28;20092;-42
2022/07/18 04:39:46;;;;;;;3.05;0.80;;;;;;;15.71;44.56;94159.38;5088365;28;20040;-42
2022/07/18 04:42:11;;;;;;;1.90;1.10;;;;;;;15.77;43.97;94177.34;5108172;28;20497;-42
2022/07/18 04:44:37;;;;;;;2.15;0.80;;;;;;;15.86;43.63;94165.59;5110480;28;20459;-42
2022/07/18 04:47:02;;;;;;;2.22;1.10;;;;;;;16.02;43.39;94165.50;5110433;28;20024;-41
2022/07/18 04:49:27;;;;;;;2.10;1.17;;;;;;;16.02;42.46;94169.03;5110145;28;20109;-42
2022/07/18 04:51:53;;;;;;;3.65;1.00;;;;;;;16.03;44.06;94167.69;5109976;28;20039;-42
2022/07/18 04:54:18;;;;;;;1.60;0.88;;;;;;;16.02;43.88;94166.22;5110342;28;20019;-43
2022/07/18 04:56:44;;;;;;;1.08;0.88;;;;;;;16.15;43.09;94168.75;5110885;28;20019;-41
2022/07/18 04:59:09;;;;;;;0.85;0.85;;;;;;;16.22;42.71;94170.72;5114187;28;20042;-40
2022/07/18 05:01:35;;;;;;;1.45;0.90;;;;;;;16.29;42.50;94158.78;5113916;28;20016;-40
2022/07/18 05:04:01;;;;;;;8.48;1.10;;;;;;;16.33;42.59;94161.91;5113784;28;20083;-42
2022/07/18 05:06:26;;;;;;;5.57;1.27;;;;;;;16.32;43.18;94159.69;5114095;27;20076;-42
2022/07/18 05:08:51;;;;;;;2.85;0.65;;;;;;;16.24;42.28;94136.72;5113805;28;20020;-42
2022/07/18 05:11:17;;;;;;;4.63;1.00;;;;;;;16.51;42.10;94157.88;5113528;28;20059;-42
2022/07/18 05:13:42;;;;;;;20.30;1.80;;;;;;;16.48;42.98;94158.28;5113930;27;20027;-42
2022/07/18 05:16:08;;;;;;;1.13;0.98;;;;;;;16.50;43.11;94158.47;5113591;28;20023;-42
2022/07/18 05:18:33;;;;;;;0.80;0.80;;;;;;;16.56;42.87;94161.75;5113866;28;20020;-42
2022/07/18 05:20:59;;;;;;;4.45;1.17;;;;;;;16.57;42.95;94157.63;5113505;28;20016;-41
2022/07/18 05:23:24;;;;;;;9.27;1.27;;;;;;;16.63;43.39;94167.25;5113485;28;20072;-41
2022/07/18 05:25:50;;;;;;;3.35;1.00;;;;;;;16.68;43.26;94169.06;5113653;28;20019;-40
2022/07/18 05:28:16;;;;;;;1.95;1.15;;;;;;;16.80;43.33;94171.38;5113347;28;20028;-40
2022/07/18 05:30:41;;;;;;;3.58;1.23;;;;;;;16.75;42.83;94158.41;5098054;28;20481;-40
2022/07/18 05:33:07;;;;;;;5.97;1.23;;;;;;;16.90;43.77;94167.38;5109292;28;20148;-42
2022/07/18 05:35:33;;;;;;;1.92;1.30;;;;;;;16.94;42.96;94166.94;5111501;28;20098;-41
2022/07/18 05:37:58;;;;;;;6.00;1.00;;;;;;;17.03;43.09;94177.47;5112500;28;20114;-42
2022/07/18 05:40:24;;;;;;;7.15;1.98;;;;;;;17.05;42.43;94167.22;5113357;28;20023;-41
2022/07/18 05:42:49;;;;;;;3.50;1.83;;;;;;;17.13;44.02;94167.84;5112702;28;20024;-44
2022/07/18 05:45:15;;;;;;;4.32;1.35;;;;;;;17.22;43.96;94175.56;5112917;27;20065;-41
2022/07/18 06:14:51;;;;;;;3.05;1.63;;;;;;;18.76;40.52;94177.94;5116728;27;20621;-44
2022/07/18 06:17:16;;;;;;;1.27;1.10;;;;;;;18.65;41.31;94178.50;5113370;28;20587;-43
2022/07/18 06:19:42;;;;;;;1.48;1.20;;;;;;;18.48;43.07;94169.44;5118014;28;20032;-45
2022/07/18 06:22:08;;;;;;;3.53;1.77;;;;;;;18.46;41.87;94174.88;5112188;27;20024;-44
2022/07/18 06:24:34;;;;;;;1.67;1.08;;;;;;;18.51;42.65;94173.88;5119873;28;20543;-41
2022/07/18 06:26:59;;;;;;;4.22;1.35;;;;;;;18.53;43.05;94177.56;5126274;27;20019;-41
2022/07/18 06:29:25;;;;;;;2.38;1.27;;;;;;;18.58;43.72;94178.63;5125820;27;20042;-41
2022/07/18 06:31:50;;;;;;;3.15;1.42;;;;;;;18.58;43.35;94179.34;5125619;27;20046;-42
2022/07/18 06:34:15;;;;;;;3.17;2.40;;;;;;;18.51;41.91;94176.69;5125821;27;20076;-41
2022/07/18 06:36:41;;;;;;;6.13;1.40;;;;;;;18.62;43.30;94179.66;5119440;27;20058;-43
2022/07/18 06:39:10;;;;;;;2.70;1.58;;;;;;;18.67;44.14;94186.28;5119228;28;20027;-42
2022/07/18 06:41:36;;;;;;;;;;;;;;;18.72;43.87;94171.28;5125851;27;20110;-42
2022/07/18 06:44:02;;;;;;;6.13;1.17;;;;;;;18.58;42.61;94151.38;5122952;27;20002;-44
2022/07/18 06:46:27;;;;;;;2.78;1.40;;;;;;;18.84;43.70;94178.53;5125602;27;20512;-43
2022/07/18 06:48:52;;;;;;;3.78;1.35;;;;;;;18.96;42.68;94175.91;5125106;27;20492;-43
2022/07/18 06:51:18;;;;;;;4.55;1.02;;;;;;;19.07;42.62;94166.19;5116618;27;20478;-42
2022/07/18 06:53:43;;;;;;;3.30;1.40;;;;;;;19.10;43.56;94173.44;5109420;28;20416;-42
2022/07/18 06:56:09;;;;;;;2.38;1.40;;;;;;;19.11;43.08;94172.09;5104726;28;20023;-44
2022/07/18 06:58:34;;;;;;;4.78;1.52;;;;;;;19.22;43.18;94165.91;5105485;28;20036;-43
2022/07/18 07:01:00;;;;;;;2.53;1.60;;;;;;;19.22;44.88;94172.25;5125377;27;20028;-43
2022/07/18 07:03:25;;;;;;;3.05;1.77;;;;;;;19.29;43.05;94168.59;5124180;28;20488;-43
2022/07/18 07:05:51;;;;;;;1.63;1.38;;;;;;;19.36;45.78;94170.50;5115146;27;20048;-43
2022/07/18 07:08:16;;;;;;;2.00;1.67;;;;;;;19.44;44.34;94162.72;5114194;27;20055;-42
2022/07/18 07:10:42;;;;;;;2.05;1.40;;;;;;;19.49;44.21;94160.94;5114509;28;20028;-44
2022/07/18 07:13:07;;;;;;;3.83;1.38;;;;;;;19.63;42.25;94157.09;5122598;28;20040;-43
2022/07/18 07:15:33;;;;;;;5.82;1.40;;;;;;;19.70;43.75;94168.72;5106726;27;20035;-44
2022/07/18 07:17:59;;;;;;;2.53;1.50;;;;;;;19.79;44.87;94170.78;5106994;28;20115;-41
2022/07/18 07:20:24;;;;;;;2.08;1.27;;;;;;;19.82;42.47;94161.19;5109504;28;20027;-42
2022/07/18 07:22:51;;;;;;;2.97;1.58;;;;;;;20.00;42.91;94163.22;5104497;28;20028;-42
2022/07/18 07:25:19;;;;;;;2.05;1.55;;;;;;;20.11;42.48;94164.66;5101911;28;20035;-43
2022/07/18 07:27:45;;;;;;;2.90;1.30;;;;;;;20.20;40.04;94161.88;5102464;28;20058;-42
2022/07/18 07:30:11;;;;;;;1.75;1.20;;;;;;;20.40;41.63;94154.09;5090724;28;20536;-44
2022/07/18 07:32:39;;;;;;;3.50;1.58;;;;;;;21.11;39.97;94156.84;5104728;28;20119;-45
2022/07/18 07:35:06;;;;;;;2.10;1.58;;;;;;;21.66;38.26;94164.66;5103944;28;20031;-42
2022/07/18 07:37:33;;;;;;;3.50;1.40;;;;;;;22.56;38.83;94164.06;5103899;28;20042;-43
2022/07/18 07:39:59;;;;;;;3.63;1.17;;;;;;;23.60;36.28;94162.47;5105340;27;20114;-43
2022/07/18 07:42:25;;;;;;;1.73;1.08;;;;;;;24.84;34.22;94155.25;5110572;28;20077;-44
2022/07/18 07:44:50;;;;;;;2.30;1.10;;;;;;;25.77;30.75;94153.59;5107576;28;20386;-43
2022/07/18 07:47:16;;;;;;;4.00;1.50;;;;;;;26.94;29.39;94154.88;5108827;28;20023;-46
2022/07/18 07:49:41;;;;;;;3.63;1.00;;;;;;;27.74;26.72;94157.63;5098074;28;20451;-46
2022/07/18 07:52:06;;;;;;;1.45;1.00;;;;;;;28.35;24.16;94157.28;5098130;28;20038;-44
2022/07/18 07:54:32;;;;;;;0.70;0.63;;;;;;;28.45;23.38;94161.25;5104383;28;20026;-43
2022/07/18 07:56:57;;;;;;;2.30;0.95;;;;;;;29.28;23.03;94157.94;5092266;28;20054;-43
2022/07/18 07:59:23;;;;;;;46.80;4.65;;;;;;;29.69;23.58;94158.69;5099106;28;20097;-44
2022/07/18 08:01:49;;;;;;;2.55;1.05;;;;;;;29.44;23.15;94149.97;5098134;28;20020;-43
2022/07/18 08:04:14;;;;;;;3.85;0.95;;;;;;;29.49;22.85;94160.84;5110762;28;20483;-43
2022/07/18 08:06:40;;;;;;;1.40;1.10;;;;;;;29.61;23.51;94164.09;5111935;28;20027;-41
2022/07/18 08:09:08;;;;;;;2.08;0.90;;;;;;;29.14;22.81;94158.88;5112068;28;20030;-40
2022/07/18 08:11:33;;;;;;;2.83;0.98;;;;;;;29.25;24.52;94162.84;5112184;28;20102;-41
2022/07/18 08:13:59;;;;;;;1.70;1.20;;;;;;;29.50;23.61;94165.13;5112155;28;20119;-41
2022/07/18 08:16:24;;;;;;;0.93;0.77;;;;;;;29.66;24.52;94156.44;5112423;28;20024;-42
2022/07/18 08:18:50;;;;;;;1.27;1.00;;;;;;;29.63;24.80;94164.16;5112708;28;20019;-41
2022/07/18 08:21:15;;;;;;;8.55;1.45;;;;;;;29.72;22.75;94163.06;5112316;28;20019;-42
2022/07/18 08:23:42;;;;;;;3.75;1.00;;;;;;;30.02;23.78;94156.97;5112288;28;20016;-42
2022/07/18 08:26:07;;;;;;;2.85;1.00;;;;;;;30.39;23.82;94157.47;5111480;28;20028;-43
2022/07/18 08:28:33;;;;;;;3.33;1.10;;;;;;;30.24;21.90;94163.34;5112256;28;20095;-41
2022/07/18 08:30:58;;;;;;;2.25;1.20;;;;;;;30.28;22.78;94164.22;5112397;28;20028;-41
2022/07/18 08:33:24;;;;;;;3.20;0.90;;;;;;;30.32;23.18;94161.50;5110876;28;20104;-42
2022/07/18 08:35:49;;;;;;;1.73;0.90;;;;;;;30.25;21.71;94154.16;5103822;28;20027;-40
2022/07/18 08:38:15;;;;;;;2.40;0.80;;;;;;;30.12;23.70;94154.44;5100130;28;20028;-45
2022/07/18 08:40:41;;;;;;;2.50;1.27;;;;;;;30.07;21.97;94167.06;5103864;28;20118;-44
2022/07/18 08:43:06;;;;;;;2.42;0.98;;;;;;;29.93;21.91;94156.66;5093509;28;20024;-43
2022/07/18 08:45:31;;;;;;;3.05;1.00;;;;;;;29.62;22.88;94150.59;5090235;28;20040;-42
2022/07/18 08:47:57;;;;;;;2.55;1.10;;;;;;;29.77;23.28;94166.81;5090362;28;20020;-42
2022/07/18 08:50:22;;;;;;;3.50;1.05;;;;;;;29.97;22.32;94162.50;5091596;28;20028;-42
2022/07/18 08:52:49;;;;;;;1.27;0.77;;;;;;;30.71;21.57;94160.56;5091252;28;20462;-41
2022/07/18 08:55:15;;;;;;;0.98;0.90;;;;;;;30.86;23.75;94158.88;5091234;28;20027;-41
2022/07/18 08:57:40;;;;;;;0.98;0.82;;;;;;;30.44;21.11;94164.75;5091169;28;20031;-42
2022/07/18 09:00:08;;;;;;;3.92;1.00;;;;;;;30.20;21.77;94160.38;5104396;28;20019;-43
2022/07/18 09:02:34;;;;;;;1.58;0.90;;;;;;;30.54;21.69;94152.94;5111766;28;20023;-42
2022/07/18 09:05:04;;;;;;;0.90;0.85;;;;;;;30.93;20.53;94152.72;5111767;28;20130;-43
2022/07/18 09:07:32;;;;;;;2.75;1.33;;;;;;;31.22;22.76;94154.25;5111358;28;20015;-41
2022/07/18 09:10:00;;;;;;;1.73;0.95;;;;;;;31.22;22.19;94159.94;5111416;28;20504;-43
2022/07/18 09:12:27;;;;;;;2.78;1.10;;;;;;;31.10;22.70;94154.63;5111235;28;20027;-41
2022/07/18 09:14:53;;;;;;;1.73;1.10;;;;;;;30.62;22.37;94158.91;5111621;28;20107;-42
2022/07/18 09:17:26;;;;;;;6.25;1.33;;;;;;;30.95;23.74;94155.63;5111545;28;20023;-42
2022/07/18 09:19:59;;;;;;;4.15;1.63;;;;;;;31.04;23.31;94154.44;5111232;28;20028;-41
2022/07/18 09:22:29;;;;;;;1.90;1.17;;;;;;;31.53;22.21;94152.97;5111366;28;20016;-42
2022/07/18 09:24:59;;;;;;;1.23;0.90;;;;;;;31.81;22.02;94150.88;5104115;28;20429;-43
2022/07/18 09:27:40;;;;;;;2.78;1.42;;;;;;;32.15;21.09;94154.59;5103133;28;20054;-42
2022/07/18 09:30:16;;;;;;;1.25;1.00;;;;;;;32.23;24.11;94151.22;5107313;28;20448;-44
2022/07/18 09:32:51;;;;;;;1.58;1.15;;;;;;;32.28;22.52;94147.03;5106354;28;20020;-42
2022/07/18 09:35:23;;;;;;;2.05;1.20;;;;;;;32.24;23.02;94153.41;5108944;28;20077;-44
2022/07/18 09:37:56;;;;;;;4.70;1.42;;;;;;;32.24;24.16;94150.53;5108991;28;20020;-46
2022/07/18 09:40:25;;;;;;;1.75;1.35;;;;;;;31.94;23.83;94156.25;5110410;28;20035;-42
2022/07/18 09:42:55;;;;;;;3.75;1.60;;;;;;;32.31;23.10;94154.28;5110023;28;20015;-41
2022/07/18 09:45:48;;;;;;;6.22;1.50;;;;;;;32.10;23.94;94150.91;5111157;28;20024;-43
2022/07/18 09:48:19;;;;;;;5.28;1.58;;;;;;;31.91;24.40;94157.56;5110388;28;20120;-44
2022/07/18 09:50:55;;;;;;;9.02;2.10;;;;;;;31.80;25.22;94155.13;5109091;28;20479;-44
2022/07/18 09:53:35;;;;;;;6.10;2.55;;;;;;;31.74;24.92;94152.09;5109411;28;20018;-42
2022/07/18 09:56:06;;;;;;;5.85;1.80;;;;;;;31.65;24.66;94150.44;5109550;28;20028;-45
2022/07/18 09:58:36;;;;;;;8.93;3.20;;;;;;;31.82;25.25;94149.44;5108964;28;20326;-41
2022/07/18 10:01:03;;;;;;;1.92;1.30;;;;;;;32.11;24.20;94154.50;5089269;28;20034;-42
2022/07/18 10:03:29;;;;;;;2.42;1.52;;;;;;;31.96;25.21;94147.72;5089378;28;20020;-44
2022/07/18 10:05:57;;;;;;;5.03;1.60;;;;;;;31.86;24.98;94149.59;5090080;28;20535;-45
2022/07/18 10:08:24;;;;;;;3.65;1.80;;;;;;;31.72;26.99;94147.09;5090514;28;20090;-41
2022/07/18 10:10:52;;;;;;;4.97;1.67;;;;;;;32.14;25.48;94151.03;5092485;28;20020;-43
2022/07/18 10:13:18;;;;;;;5.60;1.55;;;;;;;32.02;25.69;94150.00;5110502;28;20115;-43
2022/07/18 10:15:45;;;;;;;1.75;1.63;;;;;;;31.97;26.16;94145.56;5110587;28;20023;-43
2022/07/18 10:18:13;;;;;;;2.90;1.90;;;;;;;31.73;26.26;94148.53;5111030;28;20042;-42
2022/07/18 10:20:44;;;;;;;1.90;1.60;;;;;;;31.27;26.63;94139.41;5110516;28;20408;-43
2022/07/18 10:23:27;;;;;;;4.38;1.70;;;;;;;31.21;26.68;94141.38;5110474;28;20061;-44
2022/07/18 10:26:13;;;;;;;6.15;1.85;;;;;;;30.92;27.24;94139.13;5109653;28;20030;-40
2022/07/18 10:28:59;;;;;;;5.05;1.75;;;;;;;30.35;26.98;94136.66;5110689;28;20016;-42
2022/07/18 10:31:28;;;;;;;4.35;1.95;;;;;;;30.21;28.30;94139.06;5110283;28;20023;-44
2022/07/18 10:34:08;;;;;;;7.00;2.60;;;;;;;30.38;28.30;94143.91;5110329;28;20030;-45
2022/07/18 10:36:38;;;;;;;2.78;1.58;;;;;;;30.13;27.99;94133.09;5110770;28;20081;-44
2022/07/18 10:39:23;;;;;;;6.38;1.63;;;;;;;29.93;30.74;94133.91;5110366;28;20106;-41
2022/07/18 10:41:52;;;;;;;4.85;2.10;;;;;;;29.62;28.81;94130.69;5110295;28;20027;-45
2022/07/18 10:44:20;;;;;;;5.38;1.95;;;;;;;29.59;28.84;94135.56;5110382;28;20046;-43
2022/07/18 10:47:23;;;;;;;4.93;1.60;;;;;;;29.76;28.90;94131.16;5110562;28;20386;-44
2022/07/18 10:49:57;;;;;;;4.88;1.90;;;;;;;29.88;28.58;94129.47;5112007;28;20092;-44
2022/07/18 10:52:26;;;;;;;1.85;1.52;;;;;;;29.57;30.57;94132.66;5114137;28;20047;-45
2022/07/18 10:55:06;;;;;;;3.03;1.95;;;;;;;29.70;28.75;94128.09;5114173;28;20473;-43
2022/07/18 10:57:36;;;;;;;2.95;2.15;;;;;;;29.56;30.97;94131.19;5113883;28;20091;-43
2022/07/18 11:00:18;;;;;;;3.88;1.83;;;;;;;29.59;29.23;94140.53;5100208;28;20024;-44
2022/07/18 11:02:48;;;;;;;5.45;2.10;;;;;;;29.28;29.41;94127.41;5093381;28;20024;-44
2022/07/18 11:05:22;;;;;;;3.60;1.95;;;;;;;29.11;30.90;94120.38;5093337;28;20509;-46
2022/07/18 11:08:03;;;;;;;3.88;2.05;;;;;;;29.13;30.87;94126.13;5092418;28;20506;-44
2022/07/18 11:10:41;;;;;;;1.95;1.73;;;;;;;29.11;31.72;94125.31;5093864;28;20111;-44
2022/07/18 11:13:24;;;;;;;2.97;1.98;;;;;;;29.01;31.45;94117.16;5093100;28;20079;-44
2022/07/18 11:15:55;;;;;;;3.83;1.85;;;;;;;29.09;33.78;94128.09;5093459;28;20034;-43
2022/07/18 11:18:22;;;;;;;3.00;1.90;;;;;;;29.12;31.27;94115.41;5093476;28;20508;-44
2022/07/18 11:20:48;;;;;;;2.38;1.60;;;;;;;28.88;28.93;94112.44;5092268;28;20073;-45
2022/07/18 11:23:22;;;;;;;3.55;1.65;;;;;;;28.61;29.96;94109.28;5093350;28;20016;-46
2022/07/18 11:25:57;;;;;;;5.28;2.00;;;;;;;28.51;31.67;94112.44;5092998;28;20028;-44
2022/07/18 11:28:27;;;;;;;3.72;1.75;;;;;;;28.38;33.62;94116.19;5093259;28;20020;-45
2022/07/18 11:31:06;;;;;;;2.45;2.05;;;;;;;28.38;33.34;94119.78;5093325;28;20016;-43
2022/07/18 11:33:35;;;;;;;4.50;1.98;;;;;;;28.62;33.34;94111.47;5093153;28;20050;-43
2022/07/18 11:36:04;;;;;;;;;;;;;;;28.50;33.13;94119.53;5093425;28;20081;-45
2022/07/18 11:38:30;;;;;;;1.95;1.80;;;;;;;28.51;34.85;94116.00;5093392;28;19915;-43
2022/07/18 11:40:56;;;;;;;1.98;1.42;;;;;;;28.69;32.24;94110.31;5092794;28;20522;-45
2022/07/18 11:43:23;;;;;;;3.35;2.08;;;;;;;28.44;34.76;94117.16;5092570;28;20492;-43
2022/07/18 11:45:59;;;;;;;2.20;1.77;;;;;;;28.25;33.26;94117.13;5092529;28;20385;-43
2022/07/18 11:48:25;;;;;;;4.00;2.13;;;;;;;27.98;34.30;94109.66;5092939;28;20016;-43
2022/07/18 11:50:50;;;;;;;2.70;1.63;;;;;;;27.98;32.10;94108.97;5092846;28;20095;-46
2022/07/18 11:53:16;;;;;;;3.60;2.00;;;;;;;27.66;32.31;94109.06;5111600;28;20106;-44
2022/07/18 11:55:43;;;;;;;4.38;2.10;;;;;;;27.80;34.62;94106.09;5113116;28;20031;-43
2022/07/18 11:58:10;;;;;;;2.70;1.52;;;;;;;28.04;33.97;94104.25;5112761;28;20031;-43
2022/07/18 12:00:36;;;;;;;6.90;2.00;;;;;;;27.77;33.36;94102.44;5101456;27;20035;-48
2022/07/18 12:03:13;;;;;;;2.15;1.98;;;;;;;27.83;34.06;94101.22;5112102;28;20480;-43
2022/07/18 12:05:48;;;;;;;1.63;1.42;;;;;;;27.88;32.64;94103.56;5112165;28;20114;-42